createdAt,value
2018-11-10T00:03:44.710Z,16.43
2018-11-10T00:07:48.516Z,16.62
2018-11-10T00:11:52.186Z,16.52
2018-11-10T00:15:55.852Z,16.50
2018-11-10T00:19:59.613Z,16.12
2018-11-10T00:24:03.428Z,16.32
2018-11-10T00:28:07.193Z,15.77
2018-11-10T00:32:10.947Z,15.72
2018-11-10T00:36:14.627Z,15.98
2018-11-10T00:40:18.359Z,16.03
2018-11-10T00:44:22.158Z,15.83
2018-11-10T00:48:25.887Z,15.80
2018-11-10T00:52:29.700Z,16.45
2018-11-10T00:56:33.399Z,16.05
2018-11-10T01:00:37.214Z,16.30
2018-11-10T01:04:40.982Z,15.72
2018-11-10T01:08:44.744Z,15.80
2018-11-10T01:12:48.542Z,15.05
2018-11-10T01:16:52.264Z,14.45
2018-11-10T01:20:55.988Z,15.00
2018-11-10T01:24:59.751Z,14.70
2018-11-10T01:29:03.473Z,14.45
2018-11-10T01:33:07.304Z,14.10
2018-11-10T01:37:11.008Z,13.70
2018-11-10T01:41:14.753Z,14.20
2018-11-10T01:45:18.643Z,12.43
2018-11-10T01:49:22.380Z,12.50
2018-11-10T01:53:26.141Z,12.10
2018-11-10T01:57:29.864Z,12.10
2018-11-10T02:01:33.671Z,12.07
2018-11-10T02:05:37.384Z,11.83
2018-11-10T02:09:41.168Z,12.30
2018-11-10T02:13:44.914Z,11.77
2018-11-10T02:17:48.673Z,11.48
2018-11-10T02:21:52.405Z,11.18
2018-11-10T02:25:56.176Z,11.53
2018-11-10T02:29:59.964Z,11.88
2018-11-10T02:34:03.732Z,11.73
2018-11-10T02:38:07.440Z,11.73
2018-11-10T02:42:11.132Z,11.68
2018-11-10T02:46:14.874Z,11.57
2018-11-10T02:50:18.584Z,12.93
2018-11-10T02:54:22.261Z,12.45
2018-11-10T02:58:25.947Z,12.87
2018-11-10T03:02:29.686Z,12.13
2018-11-10T03:06:33.419Z,12.82
2018-11-10T03:10:37.170Z,12.40
2018-11-10T03:14:40.840Z,13.78
2018-11-10T03:18:51.201Z,14.30
2018-11-10T03:22:54.844Z,13.48
2018-11-10T03:26:58.544Z,13.90
2018-11-10T03:31:02.235Z,14.10
2018-11-10T03:35:06.870Z,14.98
2018-11-10T03:39:12.345Z,14.30
2018-11-10T03:43:15.983Z,15.83
2018-11-10T03:47:19.657Z,14.98
2018-11-10T03:51:23.435Z,14.28
2018-11-10T03:55:27.141Z,14.10
2018-11-10T03:59:30.844Z,14.15
2018-11-10T04:03:34.508Z,13.00
2018-11-10T04:07:38.268Z,14.07
2018-11-10T04:11:42.013Z,13.38
2018-11-10T04:15:45.691Z,13.53
2018-11-10T04:19:49.423Z,13.83
2018-11-10T04:23:53.145Z,13.00
2018-11-10T04:27:56.857Z,13.35
2018-11-10T04:32:00.582Z,12.58
2018-11-10T04:36:04.341Z,11.87
2018-11-10T04:40:08.757Z,12.30
2018-11-10T04:44:12.435Z,12.00
2018-11-10T04:48:16.133Z,12.13
2018-11-10T04:52:19.880Z,11.88
2018-11-10T04:56:23.567Z,11.57
2018-11-10T05:00:27.414Z,11.73
2018-11-10T05:04:31.065Z,11.20
2018-11-10T05:08:34.808Z,11.43
2018-11-10T05:12:38.508Z,11.60
2018-11-10T05:16:42.216Z,12.15
2018-11-10T05:20:45.958Z,11.48
2018-11-10T05:24:49.629Z,11.90
2018-11-10T05:28:53.305Z,11.73
2018-11-10T05:32:57.009Z,11.50
2018-11-10T05:37:00.803Z,11.97
2018-11-10T05:41:04.561Z,11.45
2018-11-10T05:45:08.290Z,11.60
2018-11-10T05:49:12.021Z,11.07
2018-11-10T05:53:15.825Z,10.95
2018-11-10T05:57:19.584Z,11.70
2018-11-10T06:01:23.272Z,11.48
2018-11-10T06:05:27.042Z,12.10
2018-11-10T06:09:30.851Z,11.23
2018-11-10T06:13:35.767Z,10.75
2018-11-10T06:17:42.821Z,10.90
2018-11-10T06:21:46.615Z,10.72
2018-11-10T06:25:50.305Z,11.08
2018-11-10T06:29:54.024Z,11.43
2018-11-10T06:33:57.724Z,11.40
2018-11-10T06:38:01.397Z,11.10
2018-11-10T06:42:05.816Z,11.50
2018-11-10T06:46:09.564Z,11.53
2018-11-10T06:50:13.307Z,11.57
2018-11-10T06:54:17.109Z,11.07
2018-11-10T06:58:20.884Z,11.10
2018-11-10T07:02:24.641Z,11.33
2018-11-10T07:06:28.315Z,11.50
2018-11-10T07:10:32.011Z,11.20
2018-11-10T07:14:35.749Z,11.43
2018-11-10T07:18:40.426Z,11.12
2018-11-10T07:22:44.237Z,11.30
2018-11-10T07:26:47.969Z,10.85
2018-11-10T07:30:51.742Z,11.00
2018-11-10T07:34:55.589Z,10.82
2018-11-10T07:38:59.296Z,10.35
2018-11-10T07:43:03.072Z,11.30
2018-11-10T07:47:06.979Z,10.85
2018-11-10T07:51:11.118Z,11.55
2018-11-10T07:55:15.737Z,11.53
2018-11-10T07:59:19.464Z,12.30
2018-11-10T08:03:23.152Z,12.18
2018-11-10T08:07:28.109Z,12.20
2018-11-10T08:11:33.737Z,12.60
2018-11-10T08:15:38.269Z,12.25
2018-11-10T08:19:42.814Z,12.00
2018-11-10T08:23:47.020Z,11.50
2018-11-10T08:27:50.750Z,11.53
2018-11-10T08:31:55.194Z,12.07
2018-11-10T08:35:59.209Z,12.75
2018-11-10T08:40:03.093Z,21.12
2018-11-10T08:44:07.792Z,15.83
2018-11-10T08:52:04.374Z,13.85
2018-11-10T08:56:08.283Z,13.93
2018-11-10T09:00:12.640Z,13.25
2018-11-10T09:04:16.440Z,14.10
2018-11-10T09:08:20.325Z,14.15
2018-11-10T09:12:24.173Z,14.07
2018-11-10T09:16:27.993Z,14.67
2018-11-10T09:20:31.873Z,14.38
2018-11-10T09:35:18.639Z,13.60
2018-11-10T09:39:22.485Z,13.53
2018-11-10T09:43:26.341Z,12.88
2018-11-10T09:47:30.240Z,13.73
2018-11-10T09:51:34.165Z,13.00
2018-11-10T09:55:38.049Z,12.35
2018-11-10T09:59:41.856Z,12.10
2018-11-10T10:03:45.610Z,13.03
2018-11-10T10:07:49.473Z,11.88
2018-11-10T10:11:53.237Z,12.37
2018-11-10T10:15:57.123Z,11.77
2018-11-10T10:20:00.961Z,10.07
2018-11-10T10:24:04.792Z,9.30
2018-11-10T10:28:08.669Z,10.20
2018-11-10T10:32:12.498Z,9.07
2018-11-10T10:36:16.381Z,9.93
2018-11-10T10:40:20.237Z,9.87
2018-11-10T10:44:23.942Z,9.00
2018-11-10T10:48:27.953Z,9.53
2018-11-10T10:52:31.796Z,9.40
2018-11-10T10:56:35.670Z,11.07
2018-11-10T11:00:44.829Z,10.13
2018-11-10T11:04:54.528Z,9.90
2018-11-10T11:08:58.419Z,9.70
2018-11-10T11:13:02.231Z,10.60
2018-11-10T11:17:06.717Z,9.83
2018-11-10T11:21:10.572Z,9.50
2018-11-10T11:25:14.870Z,9.50
2018-11-10T11:29:18.732Z,9.73
2018-11-10T11:33:22.468Z,10.00
2018-11-10T11:37:26.208Z,9.77
2018-11-10T11:41:30.173Z,10.73
2018-11-10T11:45:33.924Z,9.87
2018-11-10T11:49:37.727Z,10.13
2018-11-10T11:53:41.464Z,10.57
2018-11-10T11:57:45.244Z,9.63
2018-11-10T12:01:48.924Z,9.97
2018-11-10T12:05:52.592Z,10.83
2018-11-10T12:09:56.284Z,10.50
2018-11-10T12:14:00.012Z,10.93
2018-11-10T12:18:03.802Z,11.30
2018-11-10T12:22:07.574Z,11.20
2018-11-10T12:26:11.189Z,12.23
2018-11-10T12:30:14.875Z,11.60
2018-11-10T12:34:18.600Z,12.37
2018-11-10T12:38:22.346Z,12.20
2018-11-10T12:42:26.145Z,11.30
2018-11-10T12:46:29.959Z,12.37
2018-11-10T12:50:33.731Z,11.70
2018-11-10T12:54:37.452Z,11.83
2018-11-10T12:58:41.264Z,12.47
2018-11-10T13:02:47.284Z,11.63
2018-11-10T13:06:51.289Z,11.73
2018-11-10T13:10:55.153Z,12.20
2018-11-10T13:14:58.849Z,11.17
2018-11-10T13:19:02.518Z,11.17
2018-11-10T13:23:06.256Z,10.63
2018-11-10T13:27:10.026Z,11.50
2018-11-10T13:31:13.820Z,11.60
2018-11-10T13:35:17.532Z,10.97
2018-11-10T13:39:21.256Z,10.87
2018-11-10T13:43:24.992Z,10.80
2018-11-10T13:47:28.792Z,10.77
2018-11-10T13:51:32.618Z,9.67
2018-11-10T13:55:36.302Z,9.67
2018-11-10T13:59:40.026Z,10.33
2018-11-10T14:03:43.758Z,9.17
2018-11-10T14:07:47.459Z,9.80
2018-11-10T14:11:51.104Z,9.60
2018-11-10T14:15:54.782Z,9.20
2018-11-10T14:19:58.480Z,10.00
2018-11-10T14:24:02.245Z,10.83
2018-11-10T14:28:06.086Z,10.10
2018-11-10T14:32:09.800Z,9.70
2018-11-10T14:36:13.562Z,9.53
2018-11-10T14:40:18.029Z,9.43
2018-11-10T14:44:21.954Z,9.50
2018-11-10T14:48:25.596Z,9.50
2018-11-10T14:52:29.326Z,10.93
2018-11-10T14:56:33.035Z,8.93
2018-11-10T15:00:36.770Z,9.33
2018-11-10T15:04:40.496Z,8.87
2018-11-10T15:08:44.215Z,9.40
2018-11-10T15:12:48.380Z,9.33
2018-11-10T15:16:52.153Z,9.87
2018-11-10T15:20:55.839Z,9.70
2018-11-10T15:24:59.580Z,8.90
2018-11-10T15:29:03.287Z,9.33
2018-11-10T15:33:06.937Z,9.10
2018-11-10T15:37:10.699Z,10.03
2018-11-10T15:41:14.395Z,9.13
2018-11-10T15:45:19.182Z,8.37
2018-11-10T15:49:22.901Z,8.43
2018-11-10T15:53:26.696Z,8.43
2018-11-10T15:57:30.468Z,10.80
2018-11-10T16:01:34.419Z,8.03
2018-11-10T16:05:38.172Z,9.03
2018-11-10T16:12:18.450Z,9.50
2018-11-10T16:16:22.392Z,7.83
2018-11-10T16:20:26.098Z,7.87
2018-11-10T16:24:29.849Z,7.93
2018-11-10T16:28:33.555Z,8.13
2018-11-10T16:32:37.353Z,7.93
2018-11-10T16:36:41.533Z,7.77
2018-11-10T16:40:45.235Z,7.40
2018-11-10T16:44:49.165Z,7.47
2018-11-10T16:48:52.776Z,7.70
2018-11-10T16:52:56.482Z,7.87
2018-11-10T16:57:00.189Z,6.90
2018-11-10T17:01:03.925Z,6.87
2018-11-10T17:05:08.242Z,7.80
2018-11-10T17:09:13.372Z,7.13
2018-11-10T17:13:17.071Z,7.07
2018-11-10T17:17:20.790Z,6.87
2018-11-10T17:21:24.558Z,8.30
2018-11-10T17:25:28.289Z,13.70
2018-11-10T17:29:32.120Z,6.87
2018-11-10T17:33:35.810Z,7.27
2018-11-10T17:37:39.530Z,6.90
2018-11-10T17:41:43.262Z,6.73
2018-11-10T17:45:46.983Z,6.83
2018-11-10T17:49:50.636Z,14.60
2018-11-10T17:53:54.384Z,6.33
2018-11-10T17:57:58.175Z,6.70
2018-11-10T18:02:01.917Z,6.33
2018-11-10T18:06:05.688Z,7.07
2018-11-10T18:10:11.344Z,6.50
2018-11-10T18:14:15.064Z,6.50
2018-11-10T18:18:18.781Z,6.33
2018-11-10T18:22:22.488Z,6.53
2018-11-10T18:26:26.357Z,6.50
2018-11-10T18:30:30.093Z,7.03
2018-11-10T18:34:33.808Z,9.23
2018-11-10T18:38:37.648Z,6.93
2018-11-10T18:42:41.377Z,7.17
2018-11-10T18:46:45.200Z,6.90
2018-11-10T18:50:48.920Z,7.10
2018-11-10T18:54:52.599Z,6.87
2018-11-10T18:58:57.617Z,6.87
2018-11-10T19:03:01.332Z,6.83
2018-11-10T19:07:05.254Z,6.63
2018-11-10T19:11:08.999Z,6.90
2018-11-10T19:15:15.243Z,6.70
2018-11-10T19:19:18.924Z,6.60
2018-11-10T19:23:22.764Z,5.93
2018-11-10T19:27:26.459Z,6.33
2018-11-10T19:31:30.156Z,5.73
2018-11-10T19:35:33.908Z,5.90
2018-11-10T19:39:37.600Z,6.00
2018-11-10T19:43:41.377Z,5.93
2018-11-10T19:47:45.923Z,5.83
2018-11-10T19:51:49.898Z,5.70
2018-11-10T19:55:53.503Z,5.77
2018-11-10T19:59:57.437Z,6.27
2018-11-10T20:04:01.152Z,5.70
2018-11-10T20:08:05.072Z,5.40
2018-11-10T20:12:08.784Z,5.70
2018-11-10T20:16:14.682Z,5.83
2018-11-10T20:20:19.225Z,6.20
2018-11-10T20:24:23.014Z,5.50
2018-11-10T20:28:26.800Z,6.77
2018-11-10T20:32:30.524Z,6.20
2018-11-10T20:36:34.245Z,6.57
2018-11-10T20:40:37.948Z,6.97
2018-11-10T20:44:41.748Z,7.13
2018-11-10T20:48:45.423Z,5.97
2018-11-10T20:52:49.172Z,6.63
2018-11-10T20:56:53.001Z,5.63
2018-11-10T21:00:56.740Z,6.33
2018-11-10T21:05:00.488Z,6.53
2018-11-10T21:09:05.978Z,6.17
2018-11-10T21:13:09.841Z,6.47
2018-11-10T21:17:13.562Z,5.80
2018-11-10T21:21:17.251Z,5.90
2018-11-10T21:25:21.108Z,6.33
2018-11-10T21:29:24.809Z,7.43
2018-11-10T21:33:28.641Z,6.93
2018-11-10T21:37:32.356Z,6.27
2018-11-10T21:41:36.085Z,6.33
2018-11-10T21:45:39.813Z,6.03
2018-11-10T21:49:43.614Z,5.67
2018-11-10T21:53:47.381Z,4.90
2018-11-10T21:57:51.116Z,6.07
2018-11-10T22:01:54.909Z,6.37
2018-11-10T22:05:58.545Z,6.00
2018-11-10T22:10:02.406Z,6.43
2018-11-10T22:14:06.464Z,5.00
2018-11-10T22:18:10.170Z,6.47
2018-11-10T22:22:13.854Z,6.47
2018-11-10T22:26:17.530Z,5.97
2018-11-10T22:30:22.255Z,5.77
2018-11-10T22:34:25.987Z,6.20
2018-11-10T22:38:29.709Z,5.60
2018-11-10T22:42:33.710Z,5.63
2018-11-10T22:46:37.456Z,5.93
2018-11-10T22:50:41.227Z,6.23
2018-11-10T22:54:44.932Z,5.97
2018-11-10T22:58:48.616Z,6.03
2018-11-10T23:02:53.568Z,5.97
2018-11-10T23:06:57.258Z,6.50
2018-11-10T23:11:01.051Z,5.63
2018-11-10T23:15:04.825Z,5.90
2018-11-10T23:19:08.514Z,5.40
2018-11-10T23:23:12.282Z,5.60
2018-11-10T23:27:15.981Z,6.07
2018-11-10T23:31:19.657Z,5.53
2018-11-10T23:35:23.456Z,5.20
2018-11-10T23:39:27.200Z,4.83
2018-11-10T23:43:31.007Z,4.37
2018-11-10T23:47:34.923Z,4.13
2018-11-10T23:51:38.657Z,4.53
2018-11-10T23:55:42.440Z,4.00
2018-11-10T23:59:46.116Z,4.03
